sensor_id;sensor_type;location;lat;lon;timestamp;P1;durP1;ratioP1;P2;durP2;ratioP2
70078;SDS011;57451;52.496;13.456;2022-11-03T00:01:13;16.33;;;5.95;;
70078;SDS011;57451;52.496;13.456;2022-11-03T00:03:41;9.23;;;5.25;;
70078;SDS011;57451;52.496;13.456;2022-11-03T00:06:08;12.27;;;5.70;;
70078;SDS011;57451;52.496;13.456;2022-11-03T00:08:36;10.10;;;4.95;;
70078;SDS011;57451;52.496;13.456;2022-11-03T00:11:07;13.68;;;5.65;;
70078;SDS011;57451;52.496;13.456;2022-11-03T00:13:36;10.43;;;5.55;;
70078;SDS011;57451;52.496;13.456;2022-11-03T00:16:05;12.85;;;5.40;;
70078;SDS011;57451;52.496;13.456;2022-11-03T00:18:34;11.37;;;5.57;;
70078;SDS011;57451;52.496;13.456;2022-11-03T00:21:02;11.38;;;5.32;;
70078;SDS011;57451;52.496;13.456;2022-11-03T00:23:31;10.60;;;5.57;;
70078;SDS011;57451;52.496;13.456;2022-11-03T00:26:04;9.65;;;4.97;;
70078;SDS011;57451;52.496;13.456;2022-11-03T00:28:34;9.63;;;5.20;;
70078;SDS011;57451;52.496;13.456;2022-11-03T00:31:05;12.87;;;5.50;;
70078;SDS011;57451;52.496;13.456;2022-11-03T00:33:34;11.43;;;4.95;;
70078;SDS011;57451;52.496;13.456;2022-11-03T00:36:02;13.60;;;5.07;;
70078;SDS011;57451;52.496;13.456;2022-11-03T00:38:30;11.50;;;5.03;;
70078;SDS011;57451;52.496;13.456;2022-11-03T00:40:58;11.00;;;5.00;;
70078;SDS011;57451;52.496;13.456;2022-11-03T00:43:29;9.60;;;5.07;;
70078;SDS011;57451;52.496;13.456;2022-11-03T00:45:58;11.48;;;5.28;;
70078;SDS011;57451;52.496;13.456;2022-11-03T00:48:25;9.85;;;4.93;;
70078;SDS011;57451;52.496;13.456;2022-11-03T00:50:59;13.73;;;4.75;;
70078;SDS011;57451;52.496;13.456;2022-11-03T00:53:27;11.45;;;4.78;;
70078;SDS011;57451;52.496;13.456;2022-11-03T00:55:55;10.00;;;4.50;;
70078;SDS011;57451;52.496;13.456;2022-11-03T00:58:22;12.25;;;4.85;;
70078;SDS011;57451;52.496;13.456;2022-11-03T01:00:51;9.90;;;4.32;;
70078;SDS011;57451;52.496;13.456;2022-11-03T01:03:24;11.15;;;4.50;;
70078;SDS011;57451;52.496;13.456;2022-11-03T01:05:52;10.32;;;4.55;;
70078;SDS011;57451;52.496;13.456;2022-11-03T01:08:38;11.00;;;4.23;;
70078;SDS011;57451;52.496;13.456;2022-11-03T01:11:06;10.32;;;4.30;;
70078;SDS011;57451;52.496;13.456;2022-11-03T01:13:53;8.35;;;4.32;;
70078;SDS011;57451;52.496;13.456;2022-11-03T01:16:22;11.70;;;4.40;;
70078;SDS011;57451;52.496;13.456;2022-11-03T01:18:50;9.80;;;4.35;;
70078;SDS011;57451;52.496;13.456;2022-11-03T01:21:17;10.60;;;4.23;;
70078;SDS011;57451;52.496;13.456;2022-11-03T01:23:45;10.07;;;4.28;;
70078;SDS011;57451;52.496;13.456;2022-11-03T01:26:12;11.40;;;4.22;;
70078;SDS011;57451;52.496;13.456;2022-11-03T01:28:41;10.88;;;4.07;;
70078;SDS011;57451;52.496;13.456;2022-11-03T01:31:11;8.88;;;3.78;;
70078;SDS011;57451;52.496;13.456;2022-11-03T01:33:41;9.23;;;3.73;;
70078;SDS011;57451;52.496;13.456;2022-11-03T01:36:08;7.65;;;3.55;;
70078;SDS011;57451;52.496;13.456;2022-11-03T01:38:36;10.68;;;3.95;;
70078;SDS011;57451;52.496;13.456;2022-11-03T01:41:04;12.68;;;4.10;;
70078;SDS011;57451;52.496;13.456;2022-11-03T01:43:32;9.93;;;3.50;;
70078;SDS011;57451;52.496;13.456;2022-11-03T01:46:01;9.23;;;3.73;;
70078;SDS011;57451;52.496;13.456;2022-11-03T01:48:35;10.35;;;3.58;;
70078;SDS011;57451;52.496;13.456;2022-11-03T01:51:08;8.40;;;3.60;;
70078;SDS011;57451;52.496;13.456;2022-11-03T01:53:39;11.45;;;4.15;;
70078;SDS011;57451;52.496;13.456;2022-11-03T01:56:09;11.48;;;4.65;;
70078;SDS011;57451;52.496;13.456;2022-11-03T01:58:38;9.93;;;3.13;;
70078;SDS011;57451;52.496;13.456;2022-11-03T02:01:09;8.40;;;3.28;;
70078;SDS011;57451;52.496;13.456;2022-11-03T02:03:38;11.40;;;3.55;;
70078;SDS011;57451;52.496;13.456;2022-11-03T02:06:11;9.82;;;3.05;;
70078;SDS011;57451;52.496;13.456;2022-11-03T02:08:40;8.68;;;3.30;;
70078;SDS011;57451;52.496;13.456;2022-11-03T02:11:12;9.33;;;3.10;;
70078;SDS011;57451;52.496;13.456;2022-11-03T02:13:59;10.02;;;3.10;;
70078;SDS011;57451;52.496;13.456;2022-11-03T02:16:26;7.85;;;2.88;;
70078;SDS011;57451;52.496;13.456;2022-11-03T02:18:56;9.52;;;3.45;;
70078;SDS011;57451;52.496;13.456;2022-11-03T02:21:28;9.05;;;3.42;;
70078;SDS011;57451;52.496;13.456;2022-11-03T02:24:01;8.63;;;3.40;;
70078;SDS011;57451;52.496;13.456;2022-11-03T02:26:37;9.45;;;3.50;;
70078;SDS011;57451;52.496;13.456;2022-11-03T02:29:06;10.77;;;3.65;;
70078;SDS011;57451;52.496;13.456;2022-11-03T02:31:34;8.98;;;3.22;;
70078;SDS011;57451;52.496;13.456;2022-11-03T02:34:08;9.13;;;3.35;;
70078;SDS011;57451;52.496;13.456;2022-11-03T02:36:42;8.73;;;3.47;;
70078;SDS011;57451;52.496;13.456;2022-11-03T02:39:15;10.23;;;3.35;;
70078;SDS011;57451;52.496;13.456;2022-11-03T02:41:49;9.77;;;3.78;;
70078;SDS011;57451;52.496;13.456;2022-11-03T02:44:19;11.23;;;3.72;;
70078;SDS011;57451;52.496;13.456;2022-11-03T02:46:48;8.35;;;3.90;;
70078;SDS011;57451;52.496;13.456;2022-11-03T02:49:20;7.60;;;3.60;;
70078;SDS011;57451;52.496;13.456;2022-11-03T02:51:47;8.95;;;3.83;;
70078;SDS011;57451;52.496;13.456;2022-11-03T02:54:15;10.15;;;3.42;;
70078;SDS011;57451;52.496;13.456;2022-11-03T02:56:48;9.38;;;3.80;;
70078;SDS011;57451;52.496;13.456;2022-11-03T02:59:19;9.02;;;3.83;;
70078;SDS011;57451;52.496;13.456;2022-11-03T03:01:52;12.30;;;3.50;;
70078;SDS011;57451;52.496;13.456;2022-11-03T03:04:28;8.45;;;3.30;;
70078;SDS011;57451;52.496;13.456;2022-11-03T03:07:00;9.10;;;3.80;;
70078;SDS011;57451;52.496;13.456;2022-11-03T03:09:31;7.70;;;3.50;;
70078;SDS011;57451;52.496;13.456;2022-11-03T03:12:04;11.05;;;4.07;;
70078;SDS011;57451;52.496;13.456;2022-11-03T03:14:34;8.30;;;3.30;;
70078;SDS011;57451;52.496;13.456;2022-11-03T03:17:04;8.10;;;3.78;;
70078;SDS011;57451;52.496;13.456;2022-11-03T03:19:38;8.90;;;4.10;;
70078;SDS011;57451;52.496;13.456;2022-11-03T03:22:15;8.52;;;4.07;;
70078;SDS011;57451;52.496;13.456;2022-11-03T03:24:50;9.50;;;3.80;;
70078;SDS011;57451;52.496;13.456;2022-11-03T03:27:23;9.13;;;3.40;;
70078;SDS011;57451;52.496;13.456;2022-11-03T03:29:56;11.43;;;3.70;;
70078;SDS011;57451;52.496;13.456;2022-11-03T03:32:27;9.13;;;3.70;;
70078;SDS011;57451;52.496;13.456;2022-11-03T03:34:59;9.35;;;3.83;;
70078;SDS011;57451;52.496;13.456;2022-11-03T03:37:28;9.35;;;3.70;;
70078;SDS011;57451;52.496;13.456;2022-11-03T03:39:58;10.53;;;3.80;;
70078;SDS011;57451;52.496;13.456;2022-11-03T03:42:31;12.82;;;3.67;;
70078;SDS011;57451;52.496;13.456;2022-11-03T03:45:02;9.98;;;3.83;;
70078;SDS011;57451;52.496;13.456;2022-11-03T03:47:32;9.48;;;3.70;;
70078;SDS011;57451;52.496;13.456;2022-11-03T03:50:00;10.73;;;3.95;;
70078;SDS011;57451;52.496;13.456;2022-11-03T03:52:28;9.83;;;3.90;;
70078;SDS011;57451;52.496;13.456;2022-11-03T03:54:56;9.60;;;3.67;;
70078;SDS011;57451;52.496;13.456;2022-11-03T03:57:23;9.75;;;3.53;;
70078;SDS011;57451;52.496;13.456;2022-11-03T03:59:53;9.55;;;3.80;;
70078;SDS011;57451;52.496;13.456;2022-11-03T04:02:21;12.05;;;4.13;;
70078;SDS011;57451;52.496;13.456;2022-11-03T04:04:48;11.53;;;3.83;;
70078;SDS011;57451;52.496;13.456;2022-11-03T04:07:16;9.77;;;3.70;;
70078;SDS011;57451;52.496;13.456;2022-11-03T04:10:09;8.65;;;3.63;;
70078;SDS011;57451;52.496;13.456;2022-11-03T04:12:38;10.60;;;3.67;;
70078;SDS011;57451;52.496;13.456;2022-11-03T04:15:26;9.57;;;3.90;;
70078;SDS011;57451;52.496;13.456;2022-11-03T04:18:12;11.63;;;3.93;;
70078;SDS011;57451;52.496;13.456;2022-11-03T04:20:58;12.43;;;3.90;;
70078;SDS011;57451;52.496;13.456;2022-11-03T04:23:44;11.13;;;3.80;;
70078;SDS011;57451;52.496;13.456;2022-11-03T04:26:12;10.90;;;3.78;;
70078;SDS011;57451;52.496;13.456;2022-11-03T04:28:41;7.25;;;3.50;;
70078;SDS011;57451;52.496;13.456;2022-11-03T04:31:10;8.43;;;3.87;;
70078;SDS011;57451;52.496;13.456;2022-11-03T04:33:39;9.40;;;3.60;;
70078;SDS011;57451;52.496;13.456;2022-11-03T04:36:09;8.98;;;3.67;;
70078;SDS011;57451;52.496;13.456;2022-11-03T04:38:40;9.90;;;3.92;;
70078;SDS011;57451;52.496;13.456;2022-11-03T04:41:11;8.25;;;3.80;;
70078;SDS011;57451;52.496;13.456;2022-11-03T04:43:42;11.20;;;4.00;;
70078;SDS011;57451;52.496;13.456;2022-11-03T04:46:12;10.60;;;4.15;;
70078;SDS011;57451;52.496;13.456;2022-11-03T04:48:42;6.85;;;3.15;;
70078;SDS011;57451;52.496;13.456;2022-11-03T04:51:12;7.03;;;3.25;;
70078;SDS011;57451;52.496;13.456;2022-11-03T04:53:43;10.02;;;3.80;;
70078;SDS011;57451;52.496;13.456;2022-11-03T04:56:15;10.07;;;3.57;;
70078;SDS011;57451;52.496;13.456;2022-11-03T04:58:45;8.30;;;3.50;;
70078;SDS011;57451;52.496;13.456;2022-11-03T05:01:16;8.25;;;3.60;;
70078;SDS011;57451;52.496;13.456;2022-11-03T05:03:50;8.48;;;3.30;;
70078;SDS011;57451;52.496;13.456;2022-11-03T05:06:20;10.52;;;3.58;;
70078;SDS011;57451;52.496;13.456;2022-11-03T05:08:49;8.57;;;3.63;;
70078;SDS011;57451;52.496;13.456;2022-11-03T05:11:20;9.13;;;3.70;;
70078;SDS011;57451;52.496;13.456;2022-11-03T05:13:56;10.80;;;3.75;;
70078;SDS011;57451;52.496;13.456;2022-11-03T05:16:27;10.00;;;3.72;;
70078;SDS011;57451;52.496;13.456;2022-11-03T05:18:57;9.85;;;3.80;;
70078;SDS011;57451;52.496;13.456;2022-11-03T05:21:25;10.27;;;3.67;;
70078;SDS011;57451;52.496;13.456;2022-11-03T05:23:53;7.57;;;3.60;;
70078;SDS011;57451;52.496;13.456;2022-11-03T05:26:25;8.02;;;3.45;;
70078;SDS011;57451;52.496;13.456;2022-11-03T05:28:56;9.80;;;3.60;;
70078;SDS011;57451;52.496;13.456;2022-11-03T05:31:28;8.88;;;3.63;;
70078;SDS011;57451;52.496;13.456;2022-11-03T05:33:57;7.30;;;3.20;;
70078;SDS011;57451;52.496;13.456;2022-11-03T05:36:26;10.75;;;3.40;;
70078;SDS011;57451;52.496;13.456;2022-11-03T05:38:57;8.10;;;3.53;;
70078;SDS011;57451;52.496;13.456;2022-11-03T05:41:27;11.57;;;4.10;;
70078;SDS011;57451;52.496;13.456;2022-11-03T05:43:56;7.80;;;3.35;;
70078;SDS011;57451;52.496;13.456;2022-11-03T05:46:25;9.30;;;3.77;;
70078;SDS011;57451;52.496;13.456;2022-11-03T05:48:57;9.02;;;3.35;;
70078;SDS011;57451;52.496;13.456;2022-11-03T05:51:28;11.38;;;3.72;;
70078;SDS011;57451;52.496;13.456;2022-11-03T05:53:59;7.85;;;3.83;;
70078;SDS011;57451;52.496;13.456;2022-11-03T05:56:30;15.63;;;5.72;;
70078;SDS011;57451;52.496;13.456;2022-11-03T05:58:58;11.47;;;5.10;;
70078;SDS011;57451;52.496;13.456;2022-11-03T06:01:29;7.78;;;3.80;;
70078;SDS011;57451;52.496;13.456;2022-11-03T06:03:58;8.57;;;3.60;;
70078;SDS011;57451;52.496;13.456;2022-11-03T06:06:27;8.25;;;3.90;;
70078;SDS011;57451;52.496;13.456;2022-11-03T06:08:58;10.77;;;3.90;;
70078;SDS011;57451;52.496;13.456;2022-11-03T06:11:35;9.53;;;3.83;;
70078;SDS011;57451;52.496;13.456;2022-11-03T06:14:04;10.27;;;4.05;;
70078;SDS011;57451;52.496;13.456;2022-11-03T06:16:46;8.10;;;3.45;;
70078;SDS011;57451;52.496;13.456;2022-11-03T06:19:20;7.68;;;3.60;;
70078;SDS011;57451;52.496;13.456;2022-11-03T06:21:51;9.30;;;3.65;;
70078;SDS011;57451;52.496;13.456;2022-11-03T06:24:22;10.47;;;3.43;;
70078;SDS011;57451;52.496;13.456;2022-11-03T06:26:52;11.05;;;3.92;;
70078;SDS011;57451;52.496;13.456;2022-11-03T06:29:19;10.52;;;3.75;;
70078;SDS011;57451;52.496;13.456;2022-11-03T06:31:49;9.27;;;3.20;;
70078;SDS011;57451;52.496;13.456;2022-11-03T06:34:29;10.93;;;3.83;;
70078;SDS011;57451;52.496;13.456;2022-11-03T06:37:12;14.27;;;4.10;;
70078;SDS011;57451;52.496;13.456;2022-11-03T06:39:44;10.63;;;3.92;;
70078;SDS011;57451;52.496;13.456;2022-11-03T06:42:13;11.15;;;3.80;;
70078;SDS011;57451;52.496;13.456;2022-11-03T06:44:41;10.82;;;5.00;;
70078;SDS011;57451;52.496;13.456;2022-11-03T06:47:18;10.15;;;5.28;;
70078;SDS011;57451;52.496;13.456;2022-11-03T06:49:48;11.57;;;4.57;;
70078;SDS011;57451;52.496;13.456;2022-11-03T06:52:23;12.95;;;5.20;;
70078;SDS011;57451;52.496;13.456;2022-11-03T06:54:54;12.95;;;4.15;;
70078;SDS011;57451;52.496;13.456;2022-11-03T06:57:26;7.55;;;3.63;;
70078;SDS011;57451;52.496;13.456;2022-11-03T06:59:56;8.48;;;3.58;;
70078;SDS011;57451;52.496;13.456;2022-11-03T07:02:49;9.57;;;4.17;;
70078;SDS011;57451;52.496;13.456;2022-11-03T07:05:22;10.55;;;5.53;;
70078;SDS011;57451;52.496;13.456;2022-11-03T07:07:52;29.15;;;13.38;;
70078;SDS011;57451;52.496;13.456;2022-11-03T07:10:21;16.30;;;5.00;;
70078;SDS011;57451;52.496;13.456;2022-11-03T07:12:51;10.48;;;4.60;;
70078;SDS011;57451;52.496;13.456;2022-11-03T07:15:19;9.23;;;4.30;;
70078;SDS011;57451;52.496;13.456;2022-11-03T07:17:53;10.85;;;4.65;;
70078;SDS011;57451;52.496;13.456;2022-11-03T07:20:20;9.68;;;4.22;;
70078;SDS011;57451;52.496;13.456;2022-11-03T07:22:47;8.25;;;3.72;;
70078;SDS011;57451;52.496;13.456;2022-11-03T07:25:18;11.15;;;4.03;;
70078;SDS011;57451;52.496;13.456;2022-11-03T07:27:47;9.67;;;4.40;;
70078;SDS011;57451;52.496;13.456;2022-11-03T07:30:18;14.52;;;4.00;;
70078;SDS011;57451;52.496;13.456;2022-11-03T07:32:47;7.95;;;4.03;;
70078;SDS011;57451;52.496;13.456;2022-11-03T07:35:27;9.25;;;4.40;;
70078;SDS011;57451;52.496;13.456;2022-11-03T07:38:18;13.50;;;4.60;;
70078;SDS011;57451;52.496;13.456;2022-11-03T07:40:47;12.67;;;4.97;;
70078;SDS011;57451;52.496;13.456;2022-11-03T07:43:17;8.70;;;3.97;;
70078;SDS011;57451;52.496;13.456;2022-11-03T07:45:47;11.32;;;4.20;;
70078;SDS011;57451;52.496;13.456;2022-11-03T07:48:19;10.75;;;4.55;;
70078;SDS011;57451;52.496;13.456;2022-11-03T07:50:50;14.32;;;4.60;;
70078;SDS011;57451;52.496;13.456;2022-11-03T07:53:21;11.53;;;4.40;;
70078;SDS011;57451;52.496;13.456;2022-11-03T07:55:52;10.57;;;3.83;;
70078;SDS011;57451;52.496;13.456;2022-11-03T07:58:23;11.35;;;4.15;;
70078;SDS011;57451;52.496;13.456;2022-11-03T08:00:54;14.02;;;4.22;;
70078;SDS011;57451;52.496;13.456;2022-11-03T08:03:26;8.60;;;3.80;;
70078;SDS011;57451;52.496;13.456;2022-11-03T08:06:04;10.07;;;3.53;;
70078;SDS011;57451;52.496;13.456;2022-11-03T08:08:35;10.88;;;3.85;;
70078;SDS011;57451;52.496;13.456;2022-11-03T08:11:03;9.30;;;3.70;;
70078;SDS011;57451;52.496;13.456;2022-11-03T08:13:31;7.78;;;3.60;;
70078;SDS011;57451;52.496;13.456;2022-11-03T08:15:58;8.57;;;3.70;;
70078;SDS011;57451;52.496;13.456;2022-11-03T08:18:26;7.93;;;3.23;;
70078;SDS011;57451;52.496;13.456;2022-11-03T08:20:53;12.48;;;3.90;;
70078;SDS011;57451;52.496;13.456;2022-11-03T08:23:22;12.50;;;3.78;;
70078;SDS011;57451;52.496;13.456;2022-11-03T08:25:52;10.25;;;3.40;;
70078;SDS011;57451;52.496;13.456;2022-11-03T08:28:19;8.90;;;3.45;;
70078;SDS011;57451;52.496;13.456;2022-11-03T08:30:47;10.90;;;3.63;;
70078;SDS011;57451;52.496;13.456;2022-11-03T08:33:14;11.38;;;3.65;;
70078;SDS011;57451;52.496;13.456;2022-11-03T08:35:42;9.82;;;3.42;;
70078;SDS011;57451;52.496;13.456;2022-11-03T08:38:09;9.40;;;3.03;;
70078;SDS011;57451;52.496;13.456;2022-11-03T08:40:38;7.95;;;2.92;;
70078;SDS011;57451;52.496;13.456;2022-11-03T08:43:05;7.93;;;2.90;;
70078;SDS011;57451;52.496;13.456;2022-11-03T08:45:32;8.68;;;3.10;;
70078;SDS011;57451;52.496;13.456;2022-11-03T08:48:00;13.70;;;3.35;;
70078;SDS011;57451;52.496;13.456;2022-11-03T08:50:27;9.27;;;2.70;;
70078;SDS011;57451;52.496;13.456;2022-11-03T08:52:54;7.40;;;2.90;;
70078;SDS011;57451;52.496;13.456;2022-11-03T08:55:21;7.13;;;2.53;;
70078;SDS011;57451;52.496;13.456;2022-11-03T08:57:50;7.60;;;2.63;;
70078;SDS011;57451;52.496;13.456;2022-11-03T09:00:17;8.75;;;3.10;;
70078;SDS011;57451;52.496;13.456;2022-11-03T09:02:45;8.48;;;3.13;;
70078;SDS011;57451;52.496;13.456;2022-11-03T09:05:12;9.98;;;2.83;;
70078;SDS011;57451;52.496;13.456;2022-11-03T09:07:40;8.10;;;2.63;;
70078;SDS011;57451;52.496;13.456;2022-11-03T09:10:27;8.00;;;2.60;;
70078;SDS011;57451;52.496;13.456;2022-11-03T09:13:02;8.43;;;2.95;;
70078;SDS011;57451;52.496;13.456;2022-11-03T09:15:30;9.27;;;2.50;;
70078;SDS011;57451;52.496;13.456;2022-11-03T09:17:57;6.82;;;2.65;;
70078;SDS011;57451;52.496;13.456;2022-11-03T09:20:24;7.37;;;2.43;;
70078;SDS011;57451;52.496;13.456;2022-11-03T09:22:52;8.10;;;2.58;;
70078;SDS011;57451;52.496;13.456;2022-11-03T09:25:19;7.03;;;2.60;;
70078;SDS011;57451;52.496;13.456;2022-11-03T09:27:47;7.70;;;2.42;;
70078;SDS011;57451;52.496;13.456;2022-11-03T09:30:15;7.70;;;2.60;;
70078;SDS011;57451;52.496;13.456;2022-11-03T09:32:43;9.27;;;2.47;;
70078;SDS011;57451;52.496;13.456;2022-11-03T09:35:12;6.43;;;2.58;;
70078;SDS011;57451;52.496;13.456;2022-11-03T09:37:40;7.00;;;2.45;;
70078;SDS011;57451;52.496;13.456;2022-11-03T09:40:08;6.03;;;2.38;;
70078;SDS011;57451;52.496;13.456;2022-11-03T09:42:37;6.65;;;2.40;;
70078;SDS011;57451;52.496;13.456;2022-11-03T09:45:06;6.00;;;2.23;;
70078;SDS011;57451;52.496;13.456;2022-11-03T09:47:36;8.13;;;2.47;;
70078;SDS011;57451;52.496;13.456;2022-11-03T09:50:06;6.63;;;2.42;;
70078;SDS011;57451;52.496;13.456;2022-11-03T09:52:37;7.18;;;2.45;;
70078;SDS011;57451;52.496;13.456;2022-11-03T09:55:08;7.88;;;2.20;;
70078;SDS011;57451;52.496;13.456;2022-11-03T09:57:39;7.23;;;2.30;;
70078;SDS011;57451;52.496;13.456;2022-11-03T10:00:12;6.38;;;2.25;;
70078;SDS011;57451;52.496;13.456;2022-11-03T10:02:43;7.05;;;2.45;;
70078;SDS011;57451;52.496;13.456;2022-11-03T10:05:11;6.15;;;2.47;;
70078;SDS011;57451;52.496;13.456;2022-11-03T10:07:41;7.65;;;2.22;;
70078;SDS011;57451;52.496;13.456;2022-11-03T10:10:13;6.13;;;2.10;;
70078;SDS011;57451;52.496;13.456;2022-11-03T10:12:42;7.80;;;2.45;;
70078;SDS011;57451;52.496;13.456;2022-11-03T10:15:14;7.72;;;2.38;;
70078;SDS011;57451;52.496;13.456;2022-11-03T10:17:44;7.20;;;2.30;;
70078;SDS011;57451;52.496;13.456;2022-11-03T10:20:13;8.15;;;2.50;;
70078;SDS011;57451;52.496;13.456;2022-11-03T10:22:42;8.67;;;2.50;;
70078;SDS011;57451;52.496;13.456;2022-11-03T10:25:26;9.63;;;2.38;;
70078;SDS011;57451;52.496;13.456;2022-11-03T10:28:09;7.80;;;2.20;;
70078;SDS011;57451;52.496;13.456;2022-11-03T10:30:54;7.43;;;2.10;;
70078;SDS011;57451;52.496;13.456;2022-11-03T10:33:41;5.85;;;2.00;;
70078;SDS011;57451;52.496;13.456;2022-11-03T10:36:21;7.13;;;2.23;;
70078;SDS011;57451;52.496;13.456;2022-11-03T10:38:50;6.63;;;2.22;;
70078;SDS011;57451;52.496;13.456;2022-11-03T10:41:18;7.10;;;2.33;;
70078;SDS011;57451;52.496;13.456;2022-11-03T10:44:00;6.63;;;2.08;;
70078;SDS011;57451;52.496;13.456;2022-11-03T10:46:30;4.80;;;1.73;;
70078;SDS011;57451;52.496;13.456;2022-11-03T10:49:19;6.70;;;2.30;;
70078;SDS011;57451;52.496;13.456;2022-11-03T10:51:47;7.57;;;2.00;;
70078;SDS011;57451;52.496;13.456;2022-11-03T10:54:17;11.27;;;2.10;;
70078;SDS011;57451;52.496;13.456;2022-11-03T10:56:46;7.05;;;2.00;;
70078;SDS011;57451;52.496;13.456;2022-11-03T10:59:15;9.00;;;2.80;;
70078;SDS011;57451;52.496;13.456;2022-11-03T11:01:45;7.10;;;2.17;;
70078;SDS011;57451;52.496;13.456;2022-11-03T11:04:13;7.57;;;2.10;;
70078;SDS011;57451;52.496;13.456;2022-11-03T11:06:43;7.53;;;2.50;;
70078;SDS011;57451;52.496;13.456;2022-11-03T11:09:13;6.85;;;2.30;;
70078;SDS011;57451;52.496;13.456;2022-11-03T11:11:57;5.40;;;1.90;;
70078;SDS011;57451;52.496;13.456;2022-11-03T11:14:33;6.07;;;2.70;;
70078;SDS011;57451;52.496;13.456;2022-11-03T11:17:02;7.10;;;2.17;;
70078;SDS011;57451;52.496;13.456;2022-11-03T11:19:30;6.18;;;2.40;;
70078;SDS011;57451;52.496;13.456;2022-11-03T11:22:38;8.90;;;2.35;;
70078;SDS011;57451;52.496;13.456;2022-11-03T11:25:05;9.50;;;2.30;;
70078;SDS011;57451;52.496;13.456;2022-11-03T11:33:49;6.82;;;2.45;;
70078;SDS011;57451;52.496;13.456;2022-11-03T11:36:40;9.00;;;3.22;;
70078;SDS011;57451;52.496;13.456;2022-11-03T11:39:11;6.88;;;2.15;;
70078;SDS011;57451;52.496;13.456;2022-11-03T11:44:47;7.47;;;2.38;;
70078;SDS011;57451;52.496;13.456;2022-11-03T11:50:22;6.90;;;2.22;;
70078;SDS011;57451;52.496;13.456;2022-11-03T11:52:56;5.70;;;2.10;;
70078;SDS011;57451;52.496;13.456;2022-11-03T11:55:47;7.27;;;2.47;;
70078;SDS011;57451;52.496;13.456;2022-11-03T11:58:19;8.18;;;2.08;;
70078;SDS011;57451;52.496;13.456;2022-11-03T12:00:50;8.60;;;2.42;;
70078;SDS011;57451;52.496;13.456;2022-11-03T12:03:21;7.18;;;1.90;;
70078;SDS011;57451;52.496;13.456;2022-11-03T12:05:52;8.18;;;2.15;;
70078;SDS011;57451;52.496;13.456;2022-11-03T12:08:19;5.50;;;2.00;;
70078;SDS011;57451;52.496;13.456;2022-11-03T12:10:52;8.15;;;2.30;;
70078;SDS011;57451;52.496;13.456;2022-11-03T12:16:26;7.47;;;1.92;;
70078;SDS011;57451;52.496;13.456;2022-11-03T12:18:55;6.03;;;2.22;;
70078;SDS011;57451;52.496;13.456;2022-11-03T12:21:45;7.27;;;2.03;;
70078;SDS011;57451;52.496;13.456;2022-11-03T12:24:32;7.30;;;1.73;;
70078;SDS011;57451;52.496;13.456;2022-11-03T12:27:14;10.52;;;1.90;;
70078;SDS011;57451;52.496;13.456;2022-11-03T12:29:44;8.50;;;2.13;;
70078;SDS011;57451;52.496;13.456;2022-11-03T12:32:11;7.28;;;1.73;;
70078;SDS011;57451;52.496;13.456;2022-11-03T12:34:59;9.43;;;2.03;;
70078;SDS011;57451;52.496;13.456;2022-11-03T12:37:26;10.70;;;2.15;;
70078;SDS011;57451;52.496;13.456;2022-11-03T12:39:54;8.05;;;2.17;;
70078;SDS011;57451;52.496;13.456;2022-11-03T12:42:22;7.43;;;1.98;;
70078;SDS011;57451;52.496;13.456;2022-11-03T12:44:51;6.85;;;1.90;;
70078;SDS011;57451;52.496;13.456;2022-11-03T12:47:18;6.57;;;2.20;;
70078;SDS011;57451;52.496;13.456;2022-11-03T12:49:46;7.45;;;1.85;;
70078;SDS011;57451;52.496;13.456;2022-11-03T12:52:14;8.50;;;2.35;;
70078;SDS011;57451;52.496;13.456;2022-11-03T12:54:41;8.10;;;2.13;;
70078;SDS011;57451;52.496;13.456;2022-11-03T12:57:09;8.70;;;2.50;;
70078;SDS011;57451;52.496;13.456;2022-11-03T12:59:37;6.27;;;1.90;;
70078;SDS011;57451;52.496;13.456;2022-11-03T13:02:05;7.93;;;1.95;;
70078;SDS011;57451;52.496;13.456;2022-11-03T13:04:34;6.95;;;2.03;;
70078;SDS011;57451;52.496;13.456;2022-11-03T13:07:02;7.80;;;2.35;;
70078;SDS011;57451;52.496;13.456;2022-11-03T13:09:29;7.05;;;2.10;;
70078;SDS011;57451;52.496;13.456;2022-11-03T13:11:56;6.57;;;2.00;;
70078;SDS011;57451;52.496;13.456;2022-11-03T13:14:44;6.20;;;2.00;;
70078;SDS011;57451;52.496;13.456;2022-11-03T13:17:14;7.43;;;2.10;;
70078;SDS011;57451;52.496;13.456;2022-11-03T13:19:41;9.45;;;2.15;;
70078;SDS011;57451;52.496;13.456;2022-11-03T13:22:08;6.93;;;2.10;;
70078;SDS011;57451;52.496;13.456;2022-11-03T13:24:36;7.57;;;2.20;;
70078;SDS011;57451;52.496;13.456;2022-11-03T13:27:03;7.70;;;2.03;;
70078;SDS011;57451;52.496;13.456;2022-11-03T13:29:31;5.95;;;1.98;;
70078;SDS011;57451;52.496;13.456;2022-11-03T13:32:03;4.32;;;1.77;;
70078;SDS011;57451;52.496;13.456;2022-11-03T13:34:30;6.05;;;2.50;;
70078;SDS011;57451;52.496;13.456;2022-11-03T13:36:58;6.33;;;2.00;;
70078;SDS011;57451;52.496;13.456;2022-11-03T13:39:25;8.00;;;2.40;;
70078;SDS011;57451;52.496;13.456;2022-11-03T13:41:52;7.38;;;2.50;;
70078;SDS011;57451;52.496;13.456;2022-11-03T13:44:19;6.95;;;2.55;;
70078;SDS011;57451;52.496;13.456;2022-11-03T13:46:47;6.40;;;2.50;;
70078;SDS011;57451;52.496;13.456;2022-11-03T13:49:16;10.30;;;2.40;;
70078;SDS011;57451;52.496;13.456;2022-11-03T13:52:03;7.55;;;2.40;;
70078;SDS011;57451;52.496;13.456;2022-11-03T13:54:30;7.68;;;2.00;;
70078;SDS011;57451;52.496;13.456;2022-11-03T13:57:19;5.50;;;2.20;;
70078;SDS011;57451;52.496;13.456;2022-11-03T14:00:07;6.57;;;2.10;;
70078;SDS011;57451;52.496;13.456;2022-11-03T14:02:39;5.97;;;2.50;;
70078;SDS011;57451;52.496;13.456;2022-11-03T14:05:28;6.90;;;2.25;;
70078;SDS011;57451;52.496;13.456;2022-11-03T14:07:56;5.90;;;2.20;;
70078;SDS011;57451;52.496;13.456;2022-11-03T14:10:23;8.75;;;2.63;;
70078;SDS011;57451;52.496;13.456;2022-11-03T14:12:50;7.60;;;2.15;;
70078;SDS011;57451;52.496;13.456;2022-11-03T14:15:18;7.20;;;2.27;;
70078;SDS011;57451;52.496;13.456;2022-11-03T14:17:45;11.15;;;2.55;;
70078;SDS011;57451;52.496;13.456;2022-11-03T14:20:12;7.07;;;2.60;;
70078;SDS011;57451;52.496;13.456;2022-11-03T14:22:41;6.50;;;2.05;;
70078;SDS011;57451;52.496;13.456;2022-11-03T14:25:09;6.50;;;2.20;;
70078;SDS011;57451;52.496;13.456;2022-11-03T14:27:36;6.73;;;2.30;;
70078;SDS011;57451;52.496;13.456;2022-11-03T14:30:04;7.72;;;2.42;;
70078;SDS011;57451;52.496;13.456;2022-11-03T14:32:32;8.45;;;2.38;;
70078;SDS011;57451;52.496;13.456;2022-11-03T14:34:59;7.95;;;2.28;;
70078;SDS011;57451;52.496;13.456;2022-11-03T14:37:26;8.02;;;2.22;;
70078;SDS011;57451;52.496;13.456;2022-11-03T14:39:55;5.70;;;2.23;;
70078;SDS011;57451;52.496;13.456;2022-11-03T14:42:23;8.38;;;2.40;;
70078;SDS011;57451;52.496;13.456;2022-11-03T14:44:50;8.13;;;2.50;;
70078;SDS011;57451;52.496;13.456;2022-11-03T14:47:18;8.73;;;2.40;;
70078;SDS011;57451;52.496;13.456;2022-11-03T14:49:48;7.07;;;2.55;;
70078;SDS011;57451;52.496;13.456;2022-11-03T14:52:16;8.97;;;2.60;;
70078;SDS011;57451;52.496;13.456;2022-11-03T14:54:43;7.18;;;2.38;;
70078;SDS011;57451;52.496;13.456;2022-11-03T14:57:12;6.75;;;2.38;;
70078;SDS011;57451;52.496;13.456;2022-11-03T14:59:39;6.80;;;2.70;;
70078;SDS011;57451;52.496;13.456;2022-11-03T15:02:07;7.13;;;2.50;;
70078;SDS011;57451;52.496;13.456;2022-11-03T15:04:35;8.50;;;2.60;;
70078;SDS011;57451;52.496;13.456;2022-11-03T15:07:03;8.05;;;2.72;;
70078;SDS011;57451;52.496;13.456;2022-11-03T15:09:30;7.55;;;2.47;;